Terminal Aerodrome Forecast
Issued by NWS

Home | Current Version | Previous Version | Text Only | Print | Product List | Glossary Off
Versions: 1 2 3 4 5 6 7 8 9 10 11 12 13 14

000
FTUS43 KICT 251129
TAFCNU
TAF
KCNU 251129Z 2512/2612 30004KT P6SM FEW250
     FM251600 27006KT P6SM SCT100 SCT200
     FM252000 22010KT P6SM SCT150
     FM260100 18009KT P6SM BKN080=

USA.gov is the U.S. government's official web portal to all federal, state and local government web resources and services.